createdAt,value
2019-02-18T00:00:03.008Z,93.71
2019-02-18T00:01:03.000Z,93.60
2019-02-18T00:02:02.989Z,93.60
2019-02-18T00:03:02.977Z,93.96
2019-02-18T00:04:02.968Z,94.02
2019-02-18T00:05:02.954Z,94.27
2019-02-18T00:06:02.947Z,94.17
2019-02-18T00:07:02.933Z,94.06
2019-02-18T00:08:02.926Z,94.21
2019-02-18T00:09:02.913Z,94.31
2019-02-18T00:10:02.902Z,94.63
2019-02-18T00:11:02.892Z,94.63
2019-02-18T00:12:02.883Z,95.09
2019-02-18T00:13:02.869Z,94.88
2019-02-18T00:14:02.860Z,95.19
2019-02-18T00:15:02.848Z,95.29
2019-02-18T00:16:02.838Z,95.61
2019-02-18T00:17:02.827Z,95.44
2019-02-18T00:18:02.818Z,95.97
2019-02-18T00:19:02.808Z,96.17
2019-02-18T00:20:02.798Z,95.86
2019-02-18T00:21:02.785Z,96.33
2019-02-18T00:22:02.775Z,96.43
2019-02-18T00:23:02.765Z,96.01
2019-02-18T00:24:02.754Z,95.84
2019-02-18T00:25:02.742Z,96.01
2019-02-18T00:26:02.733Z,95.84
2019-02-18T00:27:02.724Z,96.37
2019-02-18T00:28:03.101Z,96.58
2019-02-18T00:29:02.707Z,96.47
2019-02-18T00:30:02.689Z,96.58
2019-02-18T00:31:02.682Z,96.47
2019-02-18T00:32:02.670Z,96.47
2019-02-18T00:33:02.664Z,96.41
2019-02-18T00:34:02.653Z,96.72
2019-02-18T00:35:02.637Z,96.41
2019-02-18T00:36:02.628Z,96.72
2019-02-18T00:37:02.616Z,96.41
2019-02-18T00:38:02.608Z,96.72
2019-02-18T00:39:02.598Z,96.41
2019-02-18T00:40:02.585Z,96.66
2019-02-18T00:41:02.575Z,96.66
2019-02-18T00:42:02.565Z,96.04
2019-02-18T00:43:02.554Z,96.25
2019-02-18T00:44:02.545Z,96.77
2019-02-18T00:45:02.535Z,97.23
2019-02-18T00:46:02.522Z,96.92
2019-02-18T00:47:02.514Z,97.13
2019-02-18T00:48:02.503Z,96.88
2019-02-18T00:49:02.491Z,97.65
2019-02-18T00:50:02.482Z,97.86
2019-02-18T00:51:02.470Z,97.86
2019-02-18T00:52:02.460Z,97.75
2019-02-18T00:53:04.078Z,97.75
2019-02-18T00:54:02.437Z,97.75
2019-02-18T00:55:02.429Z,97.96
2019-02-18T00:56:02.417Z,97.75
2019-02-18T00:57:02.408Z,97.75
2019-02-18T00:58:02.397Z,98.01
2019-02-18T00:59:02.390Z,97.49
2019-02-18T01:00:02.380Z,97.59
2019-02-18T01:01:02.368Z,98.11
2019-02-18T01:02:02.355Z,97.38
2019-02-18T01:03:02.350Z,98.11
2019-02-18T01:04:02.333Z,97.80
2019-02-18T01:05:02.323Z,98.43
2019-02-18T01:06:02.312Z,98.22
2019-02-18T01:07:02.306Z,98.32
2019-02-18T01:08:02.291Z,98.01
2019-02-18T01:09:02.281Z,98.47
2019-02-18T01:10:02.272Z,98.22
2019-02-18T01:11:02.263Z,98.05
2019-02-18T01:12:02.250Z,98.58
2019-02-18T01:13:02.239Z,98.05
2019-02-18T01:14:02.233Z,98.79
2019-02-18T01:15:02.219Z,98.79
2019-02-18T01:16:02.209Z,99.00
2019-02-18T01:17:02.202Z,98.58
2019-02-18T01:18:02.188Z,98.26
2019-02-18T01:19:02.177Z,98.68
2019-02-18T01:20:02.164Z,98.79
2019-02-18T01:21:02.160Z,98.68
2019-02-18T01:22:02.145Z,98.72
2019-02-18T01:23:02.136Z,98.52
2019-02-18T01:24:02.129Z,99.52
2019-02-18T01:25:02.115Z,98.79
2019-02-18T01:26:02.104Z,99.10
2019-02-18T01:27:02.092Z,99.31
2019-02-18T01:28:02.082Z,99.15
2019-02-18T01:29:02.072Z,99.00
2019-02-18T01:30:02.061Z,98.89
2019-02-18T01:31:02.050Z,99.04
2019-02-18T01:32:02.041Z,99.35
2019-02-18T01:33:02.030Z,99.25
2019-02-18T01:34:02.018Z,99.35
2019-02-18T01:35:02.009Z,99.04
2019-02-18T01:36:01.999Z,99.67
2019-02-18T01:37:01.988Z,99.67
2019-02-18T01:38:01.977Z,99.77
2019-02-18T01:39:01.970Z,99.99
2019-02-18T01:40:01.962Z,99.88
2019-02-18T01:41:01.948Z,99.99
2019-02-18T01:42:01.936Z,99.99
2019-02-18T01:43:01.925Z,99.71
2019-02-18T01:44:01.916Z,99.93
2019-02-18T01:45:01.904Z,99.99
2019-02-18T01:46:01.892Z,99.99
2019-02-18T01:47:01.884Z,99.99
2019-02-18T01:48:01.875Z,99.99
2019-02-18T01:49:01.861Z,99.99
2019-02-18T01:50:01.857Z,99.99
2019-02-18T01:51:01.841Z,99.99
2019-02-18T01:52:01.832Z,99.99
2019-02-18T01:53:01.854Z,99.99
2019-02-18T01:54:01.813Z,99.99
2019-02-18T01:55:01.799Z,99.99
2019-02-18T01:56:01.792Z,99.99
2019-02-18T01:57:01.779Z,99.99
2019-02-18T01:58:01.768Z,99.99
2019-02-18T01:59:01.757Z,99.99
2019-02-18T02:00:01.747Z,99.99
2019-02-18T02:01:01.738Z,99.99
2019-02-18T02:02:01.725Z,99.99
2019-02-18T02:03:01.715Z,99.99
2019-02-18T02:04:01.711Z,99.99
2019-02-18T02:05:01.693Z,99.99
2019-02-18T02:06:01.685Z,99.99
2019-02-18T02:07:01.671Z,99.99
2019-02-18T02:08:01.664Z,99.93
2019-02-18T02:09:01.656Z,99.99
2019-02-18T02:10:01.641Z,99.99
2019-02-18T02:11:01.631Z,99.99
2019-02-18T02:12:01.625Z,99.99
2019-02-18T02:13:01.612Z,99.99
2019-02-18T02:14:01.599Z,99.99
2019-02-18T02:15:01.596Z,99.99
2019-02-18T02:16:01.579Z,99.99
2019-02-18T02:17:01.573Z,99.99
2019-02-18T02:18:01.557Z,99.99
2019-02-18T02:19:01.546Z,99.99
2019-02-18T02:20:01.541Z,99.99
2019-02-18T02:21:01.526Z,99.99
2019-02-18T02:22:01.517Z,99.99
2019-02-18T02:23:01.505Z,99.99
2019-02-18T02:24:01.496Z,99.99
2019-02-18T02:25:01.491Z,99.99
2019-02-18T02:26:01.473Z,99.99
2019-02-18T02:27:01.464Z,99.99
2019-02-18T02:28:01.455Z,99.99
2019-02-18T02:29:01.443Z,99.99
2019-02-18T02:30:01.445Z,99.99
2019-02-18T02:31:01.598Z,99.99
2019-02-18T02:32:01.414Z,99.99
2019-02-18T02:33:01.401Z,99.99
2019-02-18T02:34:01.392Z,99.99
2019-02-18T02:35:01.386Z,99.99
2019-02-18T02:36:01.369Z,99.99
2019-02-18T02:37:01.361Z,99.99
2019-02-18T02:38:07.829Z,99.99
2019-02-18T02:39:02.336Z,99.99
2019-02-18T02:40:01.328Z,99.99
2019-02-18T02:41:01.324Z,99.99
2019-02-18T02:42:01.306Z,99.99
2019-02-18T02:43:01.295Z,99.99
2019-02-18T02:44:01.286Z,99.99
2019-02-18T02:45:01.294Z,99.99
2019-02-18T02:46:01.270Z,99.99
2019-02-18T02:47:01.257Z,99.99
2019-02-18T02:48:01.244Z,99.99
2019-02-18T02:49:01.237Z,99.99
2019-02-18T02:50:01.232Z,99.99
2019-02-18T02:51:01.215Z,99.99
2019-02-18T02:52:01.206Z,99.99
2019-02-18T02:53:01.193Z,99.99
2019-02-18T02:54:01.180Z,99.99
2019-02-18T02:55:01.171Z,99.99
2019-02-18T02:56:01.161Z,99.99
2019-02-18T02:57:01.148Z,99.99
2019-02-18T02:58:01.141Z,99.99
2019-02-18T02:59:01.134Z,99.99
2019-02-18T03:00:01.125Z,99.99
2019-02-18T03:01:01.129Z,99.99
2019-02-18T03:02:01.099Z,99.99
2019-02-18T03:03:01.086Z,99.99
2019-02-18T03:04:01.078Z,99.99
2019-02-18T03:05:01.066Z,99.99
2019-02-18T03:06:01.054Z,99.99
2019-02-18T03:07:01.050Z,99.99
2019-02-18T03:08:01.048Z,99.99
2019-02-18T03:09:01.027Z,99.99
2019-02-18T03:10:01.015Z,99.99
2019-02-18T03:11:01.005Z,99.99
2019-02-18T03:12:00.994Z,99.99
2019-02-18T03:13:00.985Z,99.99
2019-02-18T03:14:00.975Z,99.99
2019-02-18T03:15:00.961Z,99.99
2019-02-18T03:16:00.951Z,99.99
2019-02-18T03:17:00.942Z,99.99
2019-02-18T03:18:00.933Z,99.99
2019-02-18T03:19:00.929Z,99.99
2019-02-18T03:20:00.915Z,99.99
2019-02-18T03:21:00.900Z,99.99
2019-02-18T03:22:00.888Z,99.99
2019-02-18T03:23:00.881Z,99.99
2019-02-18T03:24:00.871Z,99.99
2019-02-18T03:25:00.856Z,99.99
2019-02-18T03:26:00.850Z,99.99
2019-02-18T03:27:00.837Z,99.99
2019-02-18T03:28:00.826Z,99.99
2019-02-18T03:29:00.819Z,99.99
2019-02-18T03:30:00.812Z,99.99
2019-02-18T03:31:00.800Z,99.99
2019-02-18T03:32:00.792Z,99.99
2019-02-18T03:33:00.785Z,99.99
2019-02-18T03:34:00.774Z,99.99
2019-02-18T03:35:01.227Z,99.99
2019-02-18T03:36:00.749Z,99.99
2019-02-18T03:37:00.732Z,99.99
2019-02-18T03:38:00.724Z,99.99
2019-02-18T03:39:00.711Z,99.99
2019-02-18T03:40:00.731Z,99.99
2019-02-18T03:41:03.399Z,99.99
2019-02-18T03:42:00.681Z,99.99
2019-02-18T03:43:00.676Z,99.99
2019-02-18T03:44:00.660Z,99.99
2019-02-18T03:45:00.651Z,99.99
2019-02-18T03:46:00.638Z,99.99
2019-02-18T03:47:00.629Z,99.99
2019-02-18T03:48:00.616Z,99.99
2019-02-18T03:49:00.607Z,99.99
2019-02-18T03:50:00.627Z,99.99
2019-02-18T03:51:00.585Z,99.99
2019-02-18T03:52:00.586Z,99.99
2019-02-18T03:53:00.566Z,99.99
2019-02-18T03:54:00.553Z,99.99
2019-02-18T03:55:00.543Z,99.99
2019-02-18T03:56:00.535Z,99.99
2019-02-18T03:57:00.523Z,99.99
2019-02-18T03:58:00.512Z,99.99
2019-02-18T03:59:00.503Z,99.99
2019-02-18T04:00:00.492Z,99.99
2019-02-18T04:01:00.481Z,99.99
2019-02-18T04:02:00.484Z,99.99
2019-02-18T04:03:00.462Z,99.99
2019-02-18T04:04:00.452Z,99.99
2019-02-18T04:05:00.438Z,99.99
2019-02-18T04:06:00.429Z,99.99
2019-02-18T04:07:00.417Z,99.99
2019-02-18T04:08:00.409Z,99.99
2019-02-18T04:09:00.398Z,99.99
2019-02-18T04:10:00.440Z,99.99
2019-02-18T04:11:00.378Z,99.99
2019-02-18T04:12:00.367Z,99.99
2019-02-18T04:13:00.360Z,99.99
2019-02-18T04:14:00.343Z,99.99
2019-02-18T04:15:00.515Z,99.99
2019-02-18T04:16:00.324Z,99.99
2019-02-18T04:17:00.320Z,99.99
2019-02-18T04:18:00.303Z,99.99
2019-02-18T04:19:00.293Z,99.99
2019-02-18T04:20:00.325Z,99.99
2019-02-18T04:21:00.272Z,99.99
2019-02-18T04:22:00.262Z,99.99
2019-02-18T04:23:00.251Z,99.99
2019-02-18T04:24:00.241Z,99.99
2019-02-18T04:25:00.333Z,99.99
2019-02-18T04:26:00.219Z,99.99
2019-02-18T04:27:00.209Z,99.99
2019-02-18T04:28:00.200Z,99.99
2019-02-18T04:29:00.188Z,99.99
2019-02-18T04:30:00.403Z,99.99
2019-02-18T04:31:00.166Z,99.99
2019-02-18T04:32:00.159Z,99.99
2019-02-18T04:33:00.146Z,99.99
2019-02-18T04:34:00.140Z,99.99
2019-02-18T04:35:00.239Z,99.99
2019-02-18T04:36:00.114Z,99.99
2019-02-18T04:37:00.111Z,99.99
2019-02-18T04:38:00.096Z,99.99
2019-02-18T04:39:00.083Z,99.99
2019-02-18T04:40:00.419Z,99.99
2019-02-18T04:41:00.063Z,99.99
2019-02-18T04:42:00.052Z,99.99
2019-02-18T04:43:00.041Z,99.99
2019-02-18T04:44:00.033Z,99.99
2019-02-18T04:45:00.085Z,99.99
2019-02-18T04:46:00.017Z,99.99
2019-02-18T04:46:59.999Z,99.99
2019-02-18T04:47:59.989Z,99.99
2019-02-18T04:48:59.981Z,99.99
2019-02-18T04:49:59.972Z,99.99
2019-02-18T04:50:59.959Z,99.99
2019-02-18T04:51:59.948Z,99.99
2019-02-18T04:52:59.936Z,99.99
2019-02-18T04:53:59.928Z,99.99
2019-02-18T04:54:59.919Z,99.99
2019-02-18T04:55:59.906Z,99.99
2019-02-18T04:56:59.896Z,99.99
2019-02-18T04:57:59.886Z,99.99
2019-02-18T04:58:59.878Z,99.99
2019-02-18T04:59:59.864Z,99.99
2019-02-18T05:01:02.811Z,99.99
2019-02-18T05:01:59.846Z,99.99
2019-02-18T05:02:59.835Z,99.99
2019-02-18T05:03:59.821Z,99.99
2019-02-18T05:04:59.867Z,99.99
2019-02-18T05:05:59.806Z,99.99
2019-02-18T05:06:59.793Z,99.99
2019-02-18T05:07:59.780Z,99.99
2019-02-18T05:09:05.401Z,99.99
2019-02-18T05:10:00.763Z,99.99
2019-02-18T05:10:59.751Z,99.99
2019-02-18T05:11:59.739Z,99.99
2019-02-18T05:12:59.730Z,99.99
2019-02-18T05:13:59.720Z,99.99
2019-02-18T05:14:59.708Z,99.99
2019-02-18T05:15:59.698Z,99.99
2019-02-18T05:16:59.686Z,99.99
2019-02-18T05:17:59.679Z,99.99
2019-02-18T05:18:59.666Z,99.99
2019-02-18T05:19:59.657Z,99.99
2019-02-18T05:20:59.644Z,99.99
2019-02-18T05:21:59.634Z,99.99
2019-02-18T05:22:59.624Z,99.99
2019-02-18T05:23:59.614Z,99.99
2019-02-18T05:24:59.603Z,99.99
2019-02-18T05:25:59.592Z,99.99
2019-02-18T05:26:59.581Z,99.99
2019-02-18T05:27:59.580Z,99.99
2019-02-18T05:28:59.561Z,99.99
2019-02-18T05:29:59.552Z,99.99
2019-02-18T05:30:59.542Z,99.99
2019-02-18T05:31:59.533Z,99.99
2019-02-18T05:32:59.536Z,99.99
2019-02-18T05:33:59.512Z,99.99
2019-02-18T05:34:59.500Z,99.99
2019-02-18T05:35:59.488Z,99.99
2019-02-18T05:36:59.478Z,99.99
2019-02-18T05:37:59.472Z,99.99
2019-02-18T05:38:59.458Z,99.99
2019-02-18T05:39:59.447Z,99.99
2019-02-18T05:40:59.438Z,99.99
2019-02-18T05:41:59.425Z,99.99
2019-02-18T05:42:59.419Z,99.99
2019-02-18T05:43:59.406Z,99.99
2019-02-18T05:44:59.400Z,99.99
2019-02-18T05:45:59.386Z,99.99
2019-02-18T05:46:59.373Z,99.99
2019-02-18T05:47:59.366Z,99.99
2019-02-18T05:48:59.353Z,99.99
2019-02-18T05:49:59.342Z,99.99
2019-02-18T05:50:59.334Z,99.99
2019-02-18T05:51:59.323Z,99.99
2019-02-18T05:52:59.310Z,99.99
2019-02-18T05:53:59.302Z,99.99
2019-02-18T05:54:59.295Z,99.99
2019-02-18T05:55:59.280Z,99.99
2019-02-18T05:56:59.268Z,99.99
2019-02-18T05:57:59.258Z,99.99
2019-02-18T05:58:59.249Z,99.99
2019-02-18T05:59:59.247Z,99.99
2019-02-18T06:00:59.229Z,99.99
2019-02-18T06:01:59.224Z,99.99
2019-02-18T06:02:59.207Z,99.99
2019-02-18T06:04:00.190Z,99.99
2019-02-18T06:04:59.198Z,99.99
2019-02-18T06:05:59.183Z,99.99
2019-02-18T06:06:59.205Z,99.99
2019-02-18T06:07:59.158Z,99.99
2019-02-18T06:08:59.147Z,99.99
2019-02-18T06:09:59.134Z,99.99
2019-02-18T06:10:59.173Z,99.99
2019-02-18T06:11:59.115Z,99.99
2019-02-18T06:12:59.116Z,99.99
2019-02-18T06:13:59.093Z,99.99
2019-02-18T06:14:59.081Z,99.99
2019-02-18T06:15:59.071Z,99.99
2019-02-18T06:16:59.059Z,99.99
2019-02-18T06:17:59.051Z,99.99
2019-02-18T06:18:59.042Z,99.99
2019-02-18T06:19:59.031Z,99.99
2019-02-18T06:20:59.020Z,99.99
2019-02-18T06:21:59.033Z,99.99
2019-02-18T06:22:59.021Z,99.99
2019-02-18T06:23:58.992Z,99.99
2019-02-18T06:24:58.975Z,99.99
2019-02-18T06:25:58.967Z,99.99
2019-02-18T06:26:58.956Z,99.99
2019-02-18T06:27:58.944Z,99.99
2019-02-18T06:28:58.937Z,99.99
2019-02-18T06:29:58.925Z,99.99
2019-02-18T06:30:58.914Z,99.99
2019-02-18T06:31:58.908Z,99.99
2019-02-18T06:33:01.065Z,99.99
2019-02-18T06:33:58.936Z,99.99
2019-02-18T06:34:58.871Z,99.99
2019-02-18T06:35:58.863Z,99.99
2019-02-18T06:36:58.856Z,99.99
2019-02-18T06:37:58.840Z,99.99
2019-02-18T06:38:58.830Z,99.99
2019-02-18T06:39:58.824Z,99.99
2019-02-18T06:40:58.813Z,99.99
2019-02-18T06:41:58.805Z,99.99
2019-02-18T06:42:58.789Z,99.99
2019-02-18T06:43:58.777Z,99.99
2019-02-18T06:44:58.766Z,99.99
2019-02-18T06:45:58.756Z,99.99
2019-02-18T06:46:58.746Z,99.99
2019-02-18T06:47:58.736Z,99.99
2019-02-18T06:48:58.724Z,99.99
2019-02-18T06:49:58.715Z,99.99
2019-02-18T06:50:58.709Z,99.99
2019-02-18T06:51:58.694Z,99.99
2019-02-18T06:52:58.687Z,99.99
2019-02-18T06:53:58.674Z,99.99
2019-02-18T06:54:58.664Z,99.99
2019-02-18T06:55:58.653Z,99.99
2019-02-18T06:56:58.645Z,99.99
2019-02-18T06:57:58.631Z,99.99
2019-02-18T06:58:58.622Z,99.99
2019-02-18T06:59:58.610Z,99.99
2019-02-18T07:00:58.600Z,99.99
2019-02-18T07:01:58.592Z,99.99
2019-02-18T07:02:58.579Z,99.99
2019-02-18T07:03:58.570Z,99.99
2019-02-18T07:04:58.558Z,99.99
2019-02-18T07:05:58.550Z,99.99
2019-02-18T07:06:58.540Z,99.99
2019-02-18T07:07:58.533Z,99.99
2019-02-18T07:08:58.516Z,99.99
2019-02-18T07:09:58.508Z,99.99
2019-02-18T07:10:58.495Z,99.99
2019-02-18T07:11:58.485Z,99.99
2019-02-18T07:12:58.475Z,99.99
2019-02-18T07:13:58.470Z,99.99
2019-02-18T07:14:58.454Z,99.99
2019-02-18T07:15:58.445Z,99.99
2019-02-18T07:16:58.433Z,99.97
2019-02-18T07:17:58.422Z,99.99
2019-02-18T07:18:58.411Z,99.99
2019-02-18T07:19:58.404Z,99.30
2019-02-18T07:20:58.394Z,99.30
2019-02-18T07:21:58.385Z,99.19
2019-02-18T07:22:58.371Z,99.30
2019-02-18T07:23:58.363Z,99.15
2019-02-18T07:24:58.352Z,99.35
2019-02-18T07:25:58.341Z,99.21
2019-02-18T07:26:58.334Z,98.89
2019-02-18T07:27:58.320Z,98.79
2019-02-18T07:28:58.310Z,98.58
2019-02-18T07:29:58.299Z,99.00
2019-02-18T07:30:58.289Z,98.85
2019-02-18T07:31:58.279Z,98.54
2019-02-18T07:32:58.270Z,98.11
2019-02-18T07:33:58.264Z,98.22
2019-02-18T07:34:58.248Z,98.18
2019-02-18T07:35:58.248Z,98.18
2019-02-18T07:36:58.226Z,98.18
2019-02-18T07:37:58.216Z,97.65
2019-02-18T07:39:05.160Z,97.39
2019-02-18T07:40:01.893Z,97.92
2019-02-18T07:40:58.187Z,97.81
2019-02-18T07:41:58.172Z,97.35
2019-02-18T07:42:58.161Z,97.67
2019-02-18T07:43:58.162Z,97.77
2019-02-18T07:44:58.139Z,97.41
2019-02-18T07:45:58.129Z,97.83
2019-02-18T07:46:58.120Z,97.68
2019-02-18T07:47:58.111Z,97.47
2019-02-18T07:48:58.097Z,97.53
2019-02-18T07:49:58.087Z,97.53
2019-02-18T07:50:58.078Z,97.17
2019-02-18T07:51:58.067Z,96.71
2019-02-18T07:52:58.056Z,96.82
2019-02-18T07:53:58.044Z,96.50
2019-02-18T07:54:58.036Z,96.36
2019-02-18T07:55:58.024Z,96.11
2019-02-18T07:56:58.015Z,95.85
2019-02-18T07:57:58.003Z,94.78
2019-02-18T07:58:57.991Z,92.43
2019-02-18T07:59:57.981Z,88.98
2019-02-18T08:00:57.979Z,84.68
2019-02-18T08:01:57.959Z,80.81
2019-02-18T08:02:57.954Z,78.15
2019-02-18T08:03:57.939Z,75.49
2019-02-18T08:04:57.930Z,73.88
2019-02-18T08:05:57.919Z,71.20
2019-02-18T08:06:57.911Z,71.64
2019-02-18T08:07:57.896Z,69.35
2019-02-18T08:08:57.889Z,69.59
2019-02-18T08:09:57.874Z,67.63
2019-02-18T08:10:57.864Z,65.65
2019-02-18T08:11:57.853Z,65.72
2019-02-18T08:12:57.844Z,65.48
2019-02-18T08:13:57.835Z,64.25
2019-02-18T08:14:57.824Z,64.19
2019-02-18T08:15:57.813Z,60.54
2019-02-18T08:16:57.802Z,60.28
2019-02-18T08:17:57.790Z,59.23
2019-02-18T08:18:57.779Z,56.54
2019-02-18T08:19:57.772Z,56.54
2019-02-18T08:20:57.756Z,58.02
2019-02-18T08:21:57.747Z,55.43
2019-02-18T08:22:57.737Z,55.08
2019-02-18T08:24:00.302Z,53.13
2019-02-18T08:24:57.716Z,53.92
2019-02-18T08:25:57.705Z,51.86
2019-02-18T08:26:57.702Z,51.45
2019-02-18T08:27:57.683Z,51.35
2019-02-18T08:28:57.672Z,51.68
2019-02-18T08:29:57.662Z,52.01
2019-02-18T08:30:57.650Z,52.55
2019-02-18T08:31:57.638Z,53.75
2019-02-18T08:32:57.628Z,55.74
2019-02-18T08:33:57.620Z,56.15
2019-02-18T08:34:57.607Z,56.00
2019-02-18T08:35:57.597Z,55.02
2019-02-18T08:36:57.594Z,53.80
2019-02-18T08:37:57.576Z,53.47
2019-02-18T08:38:57.565Z,53.54
2019-02-18T08:39:57.557Z,52.01
2019-02-18T08:40:57.541Z,53.31
2019-02-18T08:41:57.532Z,51.45
2019-02-18T08:42:57.523Z,51.53
2019-02-18T08:43:57.510Z,51.28
2019-02-18T08:44:57.498Z,48.88
2019-02-18T08:45:57.487Z,49.29
2019-02-18T08:46:57.476Z,51.25
2019-02-18T08:47:57.465Z,51.83
2019-02-18T08:48:57.456Z,54.05
2019-02-18T08:49:57.445Z,52.91
2019-02-18T08:50:57.437Z,52.98
2019-02-18T08:51:57.422Z,51.32
2019-02-18T08:52:57.411Z,49.90
2019-02-18T08:53:57.400Z,49.77
2019-02-18T08:54:57.411Z,49.90
2019-02-18T08:55:57.379Z,49.49
2019-02-18T08:56:57.367Z,49.67
2019-02-18T08:57:57.358Z,49.85
2019-02-18T08:58:57.347Z,48.02
2019-02-18T08:59:57.335Z,47.81
2019-02-18T09:01:02.572Z,47.79
2019-02-18T09:01:58.313Z,48.07
2019-02-18T09:02:57.302Z,49.09
2019-02-18T09:03:57.293Z,48.18
2019-02-18T09:04:57.289Z,47.26
2019-02-18T09:05:57.275Z,47.64
2019-02-18T09:06:57.264Z,47.24
2019-02-18T09:07:57.253Z,46.97
2019-02-18T09:08:57.240Z,46.72
2019-02-18T09:09:57.227Z,46.40
2019-02-18T09:10:57.217Z,46.70
2019-02-18T09:11:57.239Z,46.37
2019-02-18T09:12:57.195Z,44.54
2019-02-18T09:13:57.191Z,44.53
2019-02-18T09:14:57.178Z,45.20
2019-02-18T09:15:59.990Z,46.97
2019-02-18T09:16:57.152Z,47.61
2019-02-18T09:17:57.199Z,47.85
2019-02-18T09:18:57.132Z,46.56
2019-02-18T09:19:57.124Z,43.69
2019-02-18T09:20:57.110Z,43.55
2019-02-18T09:21:57.101Z,44.26
2019-02-18T09:22:57.150Z,43.44
2019-02-18T09:23:57.078Z,42.09
2019-02-18T09:24:57.070Z,42.45
2019-02-18T09:25:57.058Z,43.35
2019-02-18T09:26:57.044Z,43.73
2019-02-18T09:27:57.034Z,41.68
2019-02-18T09:28:57.022Z,40.55
2019-02-18T09:29:57.016Z,40.43
2019-02-18T09:30:57.004Z,40.43
2019-02-18T09:31:56.992Z,40.81
2019-02-18T09:32:56.980Z,40.34
2019-02-18T09:33:56.971Z,41.93
2019-02-18T09:35:01.942Z,42.72
2019-02-18T09:35:57.950Z,42.19
2019-02-18T09:36:56.940Z,41.36
2019-02-18T09:37:56.928Z,41.42
2019-02-18T09:38:56.919Z,39.98
2019-02-18T09:39:56.912Z,41.30
2019-02-18T09:40:56.895Z,40.75
2019-02-18T09:41:56.887Z,39.56
2019-02-18T09:42:56.874Z,41.12
2019-02-18T09:43:56.864Z,40.41
2019-02-18T09:44:56.851Z,41.38
2019-02-18T09:45:56.842Z,39.64
2019-02-18T09:46:56.831Z,37.81
2019-02-18T09:47:56.826Z,37.82
2019-02-18T09:48:56.811Z,38.33
2019-02-18T09:49:56.802Z,38.01
2019-02-18T09:50:56.791Z,38.82
2019-02-18T09:51:56.782Z,38.01
2019-02-18T09:52:56.770Z,37.89
2019-02-18T09:53:56.762Z,39.14
2019-02-18T09:54:56.747Z,38.37
2019-02-18T09:55:56.738Z,38.35
2019-02-18T09:56:56.725Z,38.09
2019-02-18T09:57:56.717Z,37.90
2019-02-18T09:58:56.703Z,37.90
2019-02-18T09:59:56.697Z,39.02
2019-02-18T10:00:56.684Z,38.73
2019-02-18T10:01:56.672Z,39.06
2019-02-18T10:02:56.661Z,39.98
2019-02-18T10:03:56.650Z,40.09
2019-02-18T10:04:56.642Z,40.43
2019-02-18T10:05:56.629Z,41.83
2019-02-18T10:06:56.634Z,40.39
2019-02-18T10:07:56.608Z,39.02
2019-02-18T10:08:56.614Z,38.84
2019-02-18T10:09:56.587Z,37.60
2019-02-18T10:10:56.666Z,38.09
2019-02-18T10:11:56.567Z,36.86
2019-02-18T10:12:56.559Z,36.74
2019-02-18T10:13:56.548Z,37.89
2019-02-18T10:14:56.538Z,38.39
2019-02-18T10:15:56.527Z,37.20
2019-02-18T10:16:56.518Z,38.45
2019-02-18T10:17:56.505Z,37.84
2019-02-18T10:18:56.492Z,38.46
2019-02-18T10:19:56.484Z,39.15
2019-02-18T10:20:56.481Z,38.35
2019-02-18T10:21:56.464Z,38.95
2019-02-18T10:22:56.450Z,38.43
2019-02-18T10:23:56.438Z,36.76
2019-02-18T10:24:56.431Z,36.76
2019-02-18T10:25:56.417Z,37.02
2019-02-18T10:26:56.407Z,35.61
2019-02-18T10:27:56.396Z,36.52
2019-02-18T10:28:56.385Z,35.90
2019-02-18T10:29:56.377Z,35.68
2019-02-18T10:30:56.365Z,35.25
2019-02-18T10:31:56.354Z,34.42
2019-02-18T10:32:56.345Z,34.52
2019-02-18T10:33:56.334Z,34.44
2019-02-18T10:34:56.323Z,34.61
2019-02-18T10:35:56.314Z,33.20
2019-02-18T10:36:56.301Z,34.04
2019-02-18T10:37:56.292Z,34.74
2019-02-18T10:38:56.280Z,34.59
2019-02-18T10:39:56.272Z,35.73
2019-02-18T10:41:06.169Z,36.12
2019-02-18T10:41:57.247Z,37.73
2019-02-18T10:42:56.244Z,36.10
2019-02-18T10:43:56.232Z,36.42
2019-02-18T10:44:56.219Z,36.96
2019-02-18T10:45:56.207Z,37.38
2019-02-18T10:46:56.197Z,37.59
2019-02-18T10:47:56.190Z,36.86
2019-02-18T10:48:56.176Z,36.82
2019-02-18T10:49:56.166Z,37.66
2019-02-18T10:50:56.161Z,37.68
2019-02-18T10:51:56.151Z,37.28
2019-02-18T10:52:56.141Z,36.72
2019-02-18T10:53:56.122Z,36.84
2019-02-18T10:54:56.165Z,36.74
2019-02-18T10:55:56.102Z,35.70
2019-02-18T10:56:56.091Z,36.12
2019-02-18T10:57:56.080Z,36.20
2019-02-18T10:58:56.070Z,35.66
2019-02-18T10:59:56.059Z,33.30
2019-02-18T11:00:56.048Z,33.40
2019-02-18T11:01:56.040Z,34.74
2019-02-18T11:02:56.028Z,34.04
2019-02-18T11:03:56.016Z,34.00
2019-02-18T11:04:56.006Z,33.18
2019-02-18T11:05:55.995Z,33.27
2019-02-18T11:06:55.985Z,32.39
2019-02-18T11:07:55.978Z,34.54
2019-02-18T11:08:55.964Z,35.43
2019-02-18T11:09:55.954Z,33.97
2019-02-18T11:10:55.945Z,32.06
2019-02-18T11:11:55.933Z,32.56
2019-02-18T11:12:55.921Z,33.72
2019-02-18T11:13:55.912Z,34.52
2019-02-18T11:14:55.901Z,34.81
2019-02-18T11:15:55.891Z,33.86
2019-02-18T11:16:55.882Z,32.55
2019-02-18T11:17:55.870Z,33.20
2019-02-18T11:18:55.860Z,34.59
2019-02-18T11:19:55.850Z,35.17
2019-02-18T11:20:55.838Z,36.20
2019-02-18T11:21:55.826Z,36.35
2019-02-18T11:22:55.823Z,35.01
2019-02-18T11:23:55.807Z,32.78
2019-02-18T11:24:55.794Z,33.28
2019-02-18T11:25:55.785Z,33.79
2019-02-18T11:26:55.775Z,32.98
2019-02-18T11:27:55.766Z,33.36
2019-02-18T11:28:55.755Z,32.21
2019-02-18T11:29:55.743Z,32.17
2019-02-18T11:30:55.732Z,32.87
2019-02-18T11:31:55.724Z,32.53
2019-02-18T11:32:55.712Z,33.22
2019-02-18T11:33:55.703Z,32.62
2019-02-18T11:34:55.690Z,31.41
2019-02-18T11:35:55.682Z,32.45
2019-02-18T11:36:55.673Z,32.97
2019-02-18T11:37:55.660Z,32.33
2019-02-18T11:38:55.653Z,32.43
2019-02-18T11:39:55.641Z,32.14
2019-02-18T11:40:55.633Z,31.60
2019-02-18T11:41:55.620Z,31.85
2019-02-18T11:42:55.612Z,29.94
2019-02-18T11:43:55.604Z,29.97
2019-02-18T11:44:55.594Z,30.34
2019-02-18T11:45:55.583Z,28.01
2019-02-18T11:46:55.573Z,28.02
2019-02-18T11:47:55.562Z,30.47
2019-02-18T11:48:55.549Z,30.10
2019-02-18T11:49:55.540Z,31.13
2019-02-18T11:50:55.528Z,31.85
2019-02-18T11:51:55.518Z,31.63
2019-02-18T11:52:55.509Z,31.59
2019-02-18T11:53:55.498Z,29.74
2019-02-18T11:54:55.488Z,30.16
2019-02-18T11:55:55.478Z,31.93
2019-02-18T11:56:55.465Z,31.90
2019-02-18T11:57:55.457Z,30.38
2019-02-18T11:58:55.449Z,30.48
2019-02-18T11:59:55.437Z,30.15
2019-02-18T12:00:55.433Z,30.76
2019-02-18T12:01:55.418Z,29.91
2019-02-18T12:03:02.846Z,28.09
2019-02-18T12:03:56.390Z,29.65
2019-02-18T12:04:55.380Z,30.69
2019-02-18T12:05:55.370Z,31.60
2019-02-18T12:06:55.357Z,31.60
2019-02-18T12:07:55.361Z,31.27
2019-02-18T12:08:55.338Z,29.84
2019-02-18T12:09:55.326Z,29.95
2019-02-18T12:10:55.317Z,29.95
2019-02-18T12:11:55.305Z,29.72
2019-02-18T12:12:55.991Z,27.88
2019-02-18T12:13:55.285Z,28.36
2019-02-18T12:14:55.276Z,28.25
2019-02-18T12:15:55.264Z,28.41
2019-02-18T12:16:55.255Z,27.82
2019-02-18T12:17:55.242Z,28.50
2019-02-18T12:18:55.232Z,27.80
2019-02-18T12:19:55.222Z,28.71
2019-02-18T12:20:55.217Z,29.19
2019-02-18T12:21:55.203Z,29.99
2019-02-18T12:22:55.192Z,28.71
2019-02-18T12:23:55.181Z,29.43
2019-02-18T12:24:55.176Z,27.91
2019-02-18T12:25:55.161Z,28.19
2019-02-18T12:26:55.155Z,27.89
2019-02-18T12:27:55.144Z,29.30
2019-02-18T12:28:55.131Z,28.21
2019-02-18T12:29:55.122Z,28.50
2019-02-18T12:30:55.116Z,28.11
2019-02-18T12:31:55.102Z,28.50
2019-02-18T12:32:55.092Z,28.71
2019-02-18T12:33:55.079Z,29.05
2019-02-18T12:34:55.073Z,30.26
2019-02-18T12:35:55.061Z,29.15
2019-02-18T12:36:55.050Z,29.88
2019-02-18T12:37:55.731Z,30.55
2019-02-18T12:38:55.035Z,28.85
2019-02-18T12:39:55.019Z,28.42
2019-02-18T12:40:55.006Z,29.06
2019-02-18T12:41:54.994Z,30.78
2019-02-18T12:42:54.983Z,29.55
2019-02-18T12:43:54.976Z,28.74
2019-02-18T12:44:54.964Z,30.44
2019-02-18T12:45:54.957Z,29.62
2019-02-18T12:46:54.952Z,28.15
2019-02-18T12:47:54.941Z,30.19
2019-02-18T12:48:54.922Z,30.48
2019-02-18T12:49:54.914Z,29.58
2019-02-18T12:50:54.903Z,30.10
2019-02-18T12:51:54.890Z,28.41